Terminal Aerodrome Forecast
Issued by NWS

Home | Current Version | Previous Version | Text Only | Print | Product List | Glossary Off
Versions: 1 2 3 4 5 6 7 8 9 10 11 12 13 14 15

618
FTUS43 KMPX 210259 AAB
TAFRWF
TAF AMD
KRWF 210259Z 2103/2124 30016G23KT P6SM SCT250
     FM210600 31017G29KT P6SM SCT200
     FM211100 32021G30KT P6SM BKN080
     FM211600 32024G33KT P6SM SCT200
     FM212200 32016G23KT P6SM SKC=

USA.gov is the U.S. government's official web portal to all federal, state and local government web resources and services.